sensor_id;sensor_type;location;lat;lon;timestamp;temperature;humidity
81726;DHT22;71135;16.738;-14.648;2023-09-30T00:01:54;14.30;68.10
81726;DHT22;71135;16.738;-14.648;2023-09-30T00:04:27;14.30;68.10
81726;DHT22;71135;16.738;-14.648;2023-09-30T00:06:56;14.30;68.10
81726;DHT22;71135;16.738;-14.648;2023-09-30T00:09:26;14.30;68.10
81726;DHT22;71135;16.738;-14.648;2023-09-30T00:11:55;14.30;68.10
81726;DHT22;71135;16.738;-14.648;2023-09-30T00:14:24;14.30;68.00
81726;DHT22;71135;16.738;-14.648;2023-09-30T00:16:54;14.20;68.00
81726;DHT22;71135;16.738;-14.648;2023-09-30T00:19:23;14.20;68.00
81726;DHT22;71135;16.738;-14.648;2023-09-30T00:21:54;14.20;68.00
81726;DHT22;71135;16.738;-14.648;2023-09-30T00:24:23;14.20;68.10
81726;DHT22;71135;16.738;-14.648;2023-09-30T00:26:53;14.20;68.20
81726;DHT22;71135;16.738;-14.648;2023-09-30T00:29:22;14.20;68.20
81726;DHT22;71135;16.738;-14.648;2023-09-30T00:31:52;14.20;68.20
81726;DHT22;71135;16.738;-14.648;2023-09-30T00:34:22;14.20;68.20
81726;DHT22;71135;16.738;-14.648;2023-09-30T00:36:53;14.20;68.20
81726;DHT22;71135;16.738;-14.648;2023-09-30T00:39:22;14.20;68.20
81726;DHT22;71135;16.738;-14.648;2023-09-30T00:41:56;14.10;68.20
81726;DHT22;71135;16.738;-14.648;2023-09-30T00:44:25;14.10;68.20
81726;DHT22;71135;16.738;-14.648;2023-09-30T00:46:54;14.10;68.20
81726;DHT22;71135;16.738;-14.648;2023-09-30T00:49:24;14.10;68.20
81726;DHT22;71135;16.738;-14.648;2023-09-30T00:51:56;14.10;68.20
81726;DHT22;71135;16.738;-14.648;2023-09-30T00:54:27;14.10;68.20
81726;DHT22;71135;16.738;-14.648;2023-09-30T00:56:57;14.00;68.30
81726;DHT22;71135;16.738;-14.648;2023-09-30T00:59:29;14.00;68.30
81726;DHT22;71135;16.738;-14.648;2023-09-30T01:02:00;14.00;68.30
81726;DHT22;71135;16.738;-14.648;2023-09-30T01:04:31;14.00;68.30
81726;DHT22;71135;16.738;-14.648;2023-09-30T01:07:03;14.00;68.30
81726;DHT22;71135;16.738;-14.648;2023-09-30T01:09:32;13.90;68.30
81726;DHT22;71135;16.738;-14.648;2023-09-30T01:12:03;13.90;68.30
81726;DHT22;71135;16.738;-14.648;2023-09-30T01:14:35;13.90;68.50
81726;DHT22;71135;16.738;-14.648;2023-09-30T01:17:04;13.90;68.50
81726;DHT22;71135;16.738;-14.648;2023-09-30T01:19:34;13.90;68.60
81726;DHT22;71135;16.738;-14.648;2023-09-30T01:22:06;13.80;68.60
81726;DHT22;71135;16.738;-14.648;2023-09-30T01:24:39;13.90;68.50
81726;DHT22;71135;16.738;-14.648;2023-09-30T01:27:09;13.80;68.50
81726;DHT22;71135;16.738;-14.648;2023-09-30T01:29:39;13.80;68.50
81726;DHT22;71135;16.738;-14.648;2023-09-30T01:32:08;13.70;68.60
81726;DHT22;71135;16.738;-14.648;2023-09-30T01:34:37;13.80;68.50
81726;DHT22;71135;16.738;-14.648;2023-09-30T01:37:09;13.70;68.60
81726;DHT22;71135;16.738;-14.648;2023-09-30T01:39:39;13.70;68.50
81726;DHT22;71135;16.738;-14.648;2023-09-30T01:42:10;13.70;68.60
81726;DHT22;71135;16.738;-14.648;2023-09-30T01:44:39;13.70;68.60
81726;DHT22;71135;16.738;-14.648;2023-09-30T01:47:09;13.60;68.60
81726;DHT22;71135;16.738;-14.648;2023-09-30T01:49:38;13.60;68.60
81726;DHT22;71135;16.738;-14.648;2023-09-30T01:52:10;13.60;68.70
81726;DHT22;71135;16.738;-14.648;2023-09-30T01:54:39;13.60;68.70
81726;DHT22;71135;16.738;-14.648;2023-09-30T01:57:08;13.60;68.70
81726;DHT22;71135;16.738;-14.648;2023-09-30T01:59:39;13.60;68.70
81726;DHT22;71135;16.738;-14.648;2023-09-30T02:02:08;13.60;68.70
81726;DHT22;71135;16.738;-14.648;2023-09-30T02:04:37;13.60;68.70
81726;DHT22;71135;16.738;-14.648;2023-09-30T02:07:09;13.50;68.80
81726;DHT22;71135;16.738;-14.648;2023-09-30T02:09:38;13.50;68.80
81726;DHT22;71135;16.738;-14.648;2023-09-30T02:12:07;13.50;68.80
81726;DHT22;71135;16.738;-14.648;2023-09-30T02:14:37;13.50;68.80
81726;DHT22;71135;16.738;-14.648;2023-09-30T02:17:07;13.50;68.80
81726;DHT22;71135;16.738;-14.648;2023-09-30T02:19:37;13.50;68.80
81726;DHT22;71135;16.738;-14.648;2023-09-30T02:22:09;13.50;68.80
81726;DHT22;71135;16.738;-14.648;2023-09-30T02:24:40;13.50;68.80
81726;DHT22;71135;16.738;-14.648;2023-09-30T02:27:09;13.50;68.80
81726;DHT22;71135;16.738;-14.648;2023-09-30T02:29:40;13.50;68.80
81726;DHT22;71135;16.738;-14.648;2023-09-30T02:32:11;13.50;68.90
81726;DHT22;71135;16.738;-14.648;2023-09-30T02:34:41;13.50;68.90
81726;DHT22;71135;16.738;-14.648;2023-09-30T02:37:13;13.50;68.90
81726;DHT22;71135;16.738;-14.648;2023-09-30T02:39:43;13.50;68.90
81726;DHT22;71135;16.738;-14.648;2023-09-30T02:42:12;13.40;68.90
81726;DHT22;71135;16.738;-14.648;2023-09-30T02:44:41;13.30;68.90
81726;DHT22;71135;16.738;-14.648;2023-09-30T02:47:10;13.30;69.00
81726;DHT22;71135;16.738;-14.648;2023-09-30T02:49:39;13.30;69.00
81726;DHT22;71135;16.738;-14.648;2023-09-30T02:52:08;13.30;69.00
81726;DHT22;71135;16.738;-14.648;2023-09-30T02:54:41;13.30;69.00
81726;DHT22;71135;16.738;-14.648;2023-09-30T02:57:10;13.30;69.00
81726;DHT22;71135;16.738;-14.648;2023-09-30T02:59:39;13.30;69.00
81726;DHT22;71135;16.738;-14.648;2023-09-30T03:02:09;13.30;68.90
81726;DHT22;71135;16.738;-14.648;2023-09-30T03:04:38;13.30;68.90
81726;DHT22;71135;16.738;-14.648;2023-09-30T03:07:08;13.30;68.90
81726;DHT22;71135;16.738;-14.648;2023-09-30T03:09:40;13.30;69.00
81726;DHT22;71135;16.738;-14.648;2023-09-30T03:12:11;13.30;69.00
81726;DHT22;71135;16.738;-14.648;2023-09-30T03:14:40;13.30;69.00
81726;DHT22;71135;16.738;-14.648;2023-09-30T03:17:10;13.30;69.10
81726;DHT22;71135;16.738;-14.648;2023-09-30T03:19:40;13.30;69.00
81726;DHT22;71135;16.738;-14.648;2023-09-30T03:22:09;13.30;69.00
81726;DHT22;71135;16.738;-14.648;2023-09-30T03:24:42;13.30;69.00
81726;DHT22;71135;16.738;-14.648;2023-09-30T03:27:11;13.30;69.10
81726;DHT22;71135;16.738;-14.648;2023-09-30T03:29:41;13.30;69.10
81726;DHT22;71135;16.738;-14.648;2023-09-30T03:32:10;13.30;69.20
81726;DHT22;71135;16.738;-14.648;2023-09-30T03:34:40;13.30;69.20
81726;DHT22;71135;16.738;-14.648;2023-09-30T03:37:11;13.30;69.20
81726;DHT22;71135;16.738;-14.648;2023-09-30T03:39:43;13.30;69.20
81726;DHT22;71135;16.738;-14.648;2023-09-30T03:42:15;13.30;69.10
81726;DHT22;71135;16.738;-14.648;2023-09-30T03:44:44;13.30;69.20
81726;DHT22;71135;16.738;-14.648;2023-09-30T03:47:14;13.30;69.20
81726;DHT22;71135;16.738;-14.648;2023-09-30T03:49:43;13.30;69.20
81726;DHT22;71135;16.738;-14.648;2023-09-30T03:52:14;13.30;69.30
81726;DHT22;71135;16.738;-14.648;2023-09-30T03:54:47;13.40;69.30
81726;DHT22;71135;16.738;-14.648;2023-09-30T03:57:16;13.40;69.20
81726;DHT22;71135;16.738;-14.648;2023-09-30T03:59:45;13.40;69.30
81726;DHT22;71135;16.738;-14.648;2023-09-30T04:02:14;13.50;69.30
81726;DHT22;71135;16.738;-14.648;2023-09-30T04:04:44;13.50;69.30
81726;DHT22;71135;16.738;-14.648;2023-09-30T04:07:13;13.50;69.30
81726;DHT22;71135;16.738;-14.648;2023-09-30T04:09:43;13.50;69.40
81726;DHT22;71135;16.738;-14.648;2023-09-30T04:12:15;13.50;69.30
81726;DHT22;71135;16.738;-14.648;2023-09-30T04:14:44;13.50;69.40
81726;DHT22;71135;16.738;-14.648;2023-09-30T04:17:14;13.50;69.40
81726;DHT22;71135;16.738;-14.648;2023-09-30T04:19:43;13.50;69.40
81726;DHT22;71135;16.738;-14.648;2023-09-30T04:22:12;13.50;69.40
81726;DHT22;71135;16.738;-14.648;2023-09-30T04:24:42;13.50;69.40
81726;DHT22;71135;16.738;-14.648;2023-09-30T04:27:11;13.50;69.40
81726;DHT22;71135;16.738;-14.648;2023-09-30T04:29:43;13.50;69.40
81726;DHT22;71135;16.738;-14.648;2023-09-30T04:32:12;13.50;69.40
81726;DHT22;71135;16.738;-14.648;2023-09-30T04:34:41;13.50;69.40
81726;DHT22;71135;16.738;-14.648;2023-09-30T04:37:12;13.50;69.40
81726;DHT22;71135;16.738;-14.648;2023-09-30T04:39:41;13.50;69.50
81726;DHT22;71135;16.738;-14.648;2023-09-30T04:42:10;13.50;69.50
81726;DHT22;71135;16.738;-14.648;2023-09-30T04:44:39;13.50;69.50
81726;DHT22;71135;16.738;-14.648;2023-09-30T04:47:12;13.50;69.50
81726;DHT22;71135;16.738;-14.648;2023-09-30T04:49:41;13.50;69.50
81726;DHT22;71135;16.738;-14.648;2023-09-30T04:52:10;13.50;69.50
81726;DHT22;71135;16.738;-14.648;2023-09-30T04:54:39;13.50;69.60
81726;DHT22;71135;16.738;-14.648;2023-09-30T04:57:11;13.40;69.60
81726;DHT22;71135;16.738;-14.648;2023-09-30T04:59:40;13.40;69.60
81726;DHT22;71135;16.738;-14.648;2023-09-30T05:02:11;13.40;69.60
81726;DHT22;71135;16.738;-14.648;2023-09-30T05:04:41;13.30;69.60
81726;DHT22;71135;16.738;-14.648;2023-09-30T05:07:10;13.30;69.70
81726;DHT22;71135;16.738;-14.648;2023-09-30T05:09:39;13.30;69.70
81726;DHT22;71135;16.738;-14.648;2023-09-30T05:12:09;13.30;69.70
81726;DHT22;71135;16.738;-14.648;2023-09-30T05:14:38;13.30;69.70
81726;DHT22;71135;16.738;-14.648;2023-09-30T05:17:07;13.30;69.70
81726;DHT22;71135;16.738;-14.648;2023-09-30T05:19:39;13.30;69.70
81726;DHT22;71135;16.738;-14.648;2023-09-30T05:22:08;13.30;69.80
81726;DHT22;71135;16.738;-14.648;2023-09-30T05:24:38;13.30;69.80
81726;DHT22;71135;16.738;-14.648;2023-09-30T05:27:07;13.30;69.70
81726;DHT22;71135;16.738;-14.648;2023-09-30T05:29:36;13.40;69.70
81726;DHT22;71135;16.738;-14.648;2023-09-30T05:32:05;13.40;69.80
81726;DHT22;71135;16.738;-14.648;2023-09-30T05:34:35;13.50;69.80
81726;DHT22;71135;16.738;-14.648;2023-09-30T05:37:07;13.50;69.80
81726;DHT22;71135;16.738;-14.648;2023-09-30T05:39:38;13.50;69.70
81726;DHT22;71135;16.738;-14.648;2023-09-30T05:42:08;13.60;69.80
81726;DHT22;71135;16.738;-14.648;2023-09-30T05:44:37;13.60;69.80
81726;DHT22;71135;16.738;-14.648;2023-09-30T05:47:07;13.60;69.80
81726;DHT22;71135;16.738;-14.648;2023-09-30T05:49:36;13.70;69.80
81726;DHT22;71135;16.738;-14.648;2023-09-30T05:52:08;13.70;69.90
81726;DHT22;71135;16.738;-14.648;2023-09-30T05:54:38;13.80;69.80
81726;DHT22;71135;16.738;-14.648;2023-09-30T05:57:07;13.80;69.80
81726;DHT22;71135;16.738;-14.648;2023-09-30T05:59:36;13.90;69.70
81726;DHT22;71135;16.738;-14.648;2023-09-30T06:02:05;13.90;69.80
81726;DHT22;71135;16.738;-14.648;2023-09-30T06:04:35;13.90;69.80
81726;DHT22;71135;16.738;-14.648;2023-09-30T06:07:04;13.90;69.90
81726;DHT22;71135;16.738;-14.648;2023-09-30T06:09:35;13.90;69.80
81726;DHT22;71135;16.738;-14.648;2023-09-30T06:12:05;13.90;69.80
81726;DHT22;71135;16.738;-14.648;2023-09-30T06:14:38;14.00;69.80
81726;DHT22;71135;16.738;-14.648;2023-09-30T06:17:07;14.00;69.90
81726;DHT22;71135;16.738;-14.648;2023-09-30T06:19:36;14.00;69.80
81726;DHT22;71135;16.738;-14.648;2023-09-30T06:22:05;14.10;69.80
81726;DHT22;71135;16.738;-14.648;2023-09-30T06:24:37;14.10;69.90
81726;DHT22;71135;16.738;-14.648;2023-09-30T06:27:06;14.10;69.90
81726;DHT22;71135;16.738;-14.648;2023-09-30T06:29:39;14.10;69.90
81726;DHT22;71135;16.738;-14.648;2023-09-30T06:32:09;14.10;69.90
81726;DHT22;71135;16.738;-14.648;2023-09-30T06:34:38;14.10;69.90
81726;DHT22;71135;16.738;-14.648;2023-09-30T06:37:07;14.10;69.90
81726;DHT22;71135;16.738;-14.648;2023-09-30T06:39:39;14.10;69.90
81726;DHT22;71135;16.738;-14.648;2023-09-30T06:42:08;14.10;69.90
81726;DHT22;71135;16.738;-14.648;2023-09-30T06:44:38;14.20;70.00
81726;DHT22;71135;16.738;-14.648;2023-09-30T06:47:07;14.20;69.90
81726;DHT22;71135;16.738;-14.648;2023-09-30T06:49:38;14.20;69.90
81726;DHT22;71135;16.738;-14.648;2023-09-30T06:52:07;14.20;69.90
81726;DHT22;71135;16.738;-14.648;2023-09-30T06:54:39;14.20;70.00
81726;DHT22;71135;16.738;-14.648;2023-09-30T06:57:08;14.20;70.00
81726;DHT22;71135;16.738;-14.648;2023-09-30T06:59:37;14.30;70.00
81726;DHT22;71135;16.738;-14.648;2023-09-30T07:02:06;14.30;69.90
81726;DHT22;71135;16.738;-14.648;2023-09-30T07:04:36;14.30;70.00
81726;DHT22;71135;16.738;-14.648;2023-09-30T07:07:05;14.40;70.00
81726;DHT22;71135;16.738;-14.648;2023-09-30T07:09:34;14.40;70.00
81726;DHT22;71135;16.738;-14.648;2023-09-30T07:12:06;14.40;70.00
81726;DHT22;71135;16.738;-14.648;2023-09-30T07:14:35;14.40;70.00
81726;DHT22;71135;16.738;-14.648;2023-09-30T07:17:04;14.50;70.00
81726;DHT22;71135;16.738;-14.648;2023-09-30T07:19:34;14.50;70.00
81726;DHT22;71135;16.738;-14.648;2023-09-30T07:22:03;14.50;70.00
81726;DHT22;71135;16.738;-14.648;2023-09-30T07:24:32;14.60;70.00
81726;DHT22;71135;16.738;-14.648;2023-09-30T07:27:01;14.60;70.00
81726;DHT22;71135;16.738;-14.648;2023-09-30T07:29:33;14.60;70.00
81726;DHT22;71135;16.738;-14.648;2023-09-30T07:32:03;14.70;70.00
81726;DHT22;71135;16.738;-14.648;2023-09-30T07:34:32;14.70;70.00
81726;DHT22;71135;16.738;-14.648;2023-09-30T07:37:02;14.70;70.20
81726;DHT22;71135;16.738;-14.648;2023-09-30T07:39:31;14.70;70.10
81726;DHT22;71135;16.738;-14.648;2023-09-30T07:42:01;14.80;70.10
81726;DHT22;71135;16.738;-14.648;2023-09-30T07:44:32;14.80;70.10
81726;DHT22;71135;16.738;-14.648;2023-09-30T07:47:02;14.90;70.10
81726;DHT22;71135;16.738;-14.648;2023-09-30T07:49:32;14.90;70.00
81726;DHT22;71135;16.738;-14.648;2023-09-30T07:52:01;15.00;70.00
81726;DHT22;71135;16.738;-14.648;2023-09-30T07:54:30;15.00;70.30
81726;DHT22;71135;16.738;-14.648;2023-09-30T07:56:59;15.00;70.30
81726;DHT22;71135;16.738;-14.648;2023-09-30T07:59:28;15.00;70.30
81726;DHT22;71135;16.738;-14.648;2023-09-30T08:02:02;15.20;70.30
81726;DHT22;71135;16.738;-14.648;2023-09-30T08:04:33;15.20;70.50
81726;DHT22;71135;16.738;-14.648;2023-09-30T08:07:02;15.30;70.50
81726;DHT22;71135;16.738;-14.648;2023-09-30T08:09:31;15.30;70.50
81726;DHT22;71135;16.738;-14.648;2023-09-30T08:12:01;15.40;70.50
81726;DHT22;71135;16.738;-14.648;2023-09-30T08:14:30;15.50;70.50
81726;DHT22;71135;16.738;-14.648;2023-09-30T08:17:02;15.60;70.30
81726;DHT22;71135;16.738;-14.648;2023-09-30T08:19:31;15.60;70.20
81726;DHT22;71135;16.738;-14.648;2023-09-30T08:22:00;15.80;70.30
81726;DHT22;71135;16.738;-14.648;2023-09-30T08:24:29;15.80;70.30
81726;DHT22;71135;16.738;-14.648;2023-09-30T08:27:00;15.80;70.40
81726;DHT22;71135;16.738;-14.648;2023-09-30T08:29:33;16.00;70.30
81726;DHT22;71135;16.738;-14.648;2023-09-30T08:32:05;16.00;70.20
81726;DHT22;71135;16.738;-14.648;2023-09-30T08:34:34;16.10;70.20
81726;DHT22;71135;16.738;-14.648;2023-09-30T08:37:03;16.20;70.20
81726;DHT22;71135;16.738;-14.648;2023-09-30T08:39:37;16.30;70.20
81726;DHT22;71135;16.738;-14.648;2023-09-30T08:42:09;16.40;70.20
81726;DHT22;71135;16.738;-14.648;2023-09-30T08:44:38;16.50;70.20
81726;DHT22;71135;16.738;-14.648;2023-09-30T08:47:11;16.60;70.20
81726;DHT22;71135;16.738;-14.648;2023-09-30T08:49:41;16.70;70.20
81726;DHT22;71135;16.738;-14.648;2023-09-30T08:52:13;16.70;70.10
81726;DHT22;71135;16.738;-14.648;2023-09-30T08:54:43;16.80;70.10
81726;DHT22;71135;16.738;-14.648;2023-09-30T08:57:13;16.80;70.10
81726;DHT22;71135;16.738;-14.648;2023-09-30T08:59:43;16.90;70.10
81726;DHT22;71135;16.738;-14.648;2023-09-30T09:02:15;16.90;70.10
81726;DHT22;71135;16.738;-14.648;2023-09-30T09:04:45;17.00;70.20
81726;DHT22;71135;16.738;-14.648;2023-09-30T09:07:15;17.00;70.20
81726;DHT22;71135;16.738;-14.648;2023-09-30T09:10:03;17.10;70.10
81726;DHT22;71135;16.738;-14.648;2023-09-30T09:12:34;17.20;70.00
81726;DHT22;71135;16.738;-14.648;2023-09-30T09:15:06;17.20;70.10
81726;DHT22;71135;16.738;-14.648;2023-09-30T09:17:45;17.30;70.00
81726;DHT22;71135;16.738;-14.648;2023-09-30T09:20:18;17.40;69.90
81726;DHT22;71135;16.738;-14.648;2023-09-30T09:22:50;17.50;70.00
81726;DHT22;71135;16.738;-14.648;2023-09-30T09:25:21;17.50;70.00
81726;DHT22;71135;16.738;-14.648;2023-09-30T09:27:52;17.50;70.00
81726;DHT22;71135;16.738;-14.648;2023-09-30T09:30:22;17.60;70.00
81726;DHT22;71135;16.738;-14.648;2023-09-30T09:32:58;17.80;69.90
81726;DHT22;71135;16.738;-14.648;2023-09-30T09:35:29;17.80;69.80
81726;DHT22;71135;16.738;-14.648;2023-09-30T09:38:00;17.90;69.80
81726;DHT22;71135;16.738;-14.648;2023-09-30T09:40:31;18.00;69.80
81726;DHT22;71135;16.738;-14.648;2023-09-30T09:43:01;18.00;69.80
81726;DHT22;71135;16.738;-14.648;2023-09-30T09:45:33;18.10;69.70
81726;DHT22;71135;16.738;-14.648;2023-09-30T09:48:06;18.20;69.70
81726;DHT22;71135;16.738;-14.648;2023-09-30T09:50:35;18.30;69.50
81726;DHT22;71135;16.738;-14.648;2023-09-30T09:53:05;18.30;69.40
81726;DHT22;71135;16.738;-14.648;2023-09-30T09:55:36;18.40;69.40
81726;DHT22;71135;16.738;-14.648;2023-09-30T09:58:08;18.50;69.20
81726;DHT22;71135;16.738;-14.648;2023-09-30T10:00:38;18.80;69.20
81726;DHT22;71135;16.738;-14.648;2023-09-30T10:03:13;19.20;68.40
81726;DHT22;71135;16.738;-14.648;2023-09-30T10:05:43;19.90;67.90
81726;DHT22;71135;16.738;-14.648;2023-09-30T10:08:14;20.80;66.20
81726;DHT22;71135;16.738;-14.648;2023-09-30T10:10:45;21.70;64.70
81726;DHT22;71135;16.738;-14.648;2023-09-30T10:13:51;22.40;63.40
81726;DHT22;71135;16.738;-14.648;2023-09-30T10:16:48;23.40;61.10
81726;DHT22;71135;16.738;-14.648;2023-09-30T10:19:23;24.70;58.90
81726;DHT22;71135;16.738;-14.648;2023-09-30T10:22:21;25.60;57.20
81726;DHT22;71135;16.738;-14.648;2023-09-30T10:24:52;25.30;57.30
81726;DHT22;71135;16.738;-14.648;2023-09-30T10:27:32;24.40;57.80
81726;DHT22;71135;16.738;-14.648;2023-09-30T10:30:08;23.50;56.90
81726;DHT22;71135;16.738;-14.648;2023-09-30T10:33:13;22.60;58.20
81726;DHT22;71135;16.738;-14.648;2023-09-30T10:35:50;22.00;59.80
81726;DHT22;71135;16.738;-14.648;2023-09-30T10:38:36;21.50;61.20
81726;DHT22;71135;16.738;-14.648;2023-09-30T10:41:04;21.10;62.10
81726;DHT22;71135;16.738;-14.648;2023-09-30T10:43:35;21.00;62.60
81726;DHT22;71135;16.738;-14.648;2023-09-30T10:46:30;20.70;62.90
81726;DHT22;71135;16.738;-14.648;2023-09-30T10:49:30;20.50;63.30
81726;DHT22;71135;16.738;-14.648;2023-09-30T10:52:07;20.20;63.70
81726;DHT22;71135;16.738;-14.648;2023-09-30T10:54:37;20.00;64.40
81726;DHT22;71135;16.738;-14.648;2023-09-30T10:57:06;20.80;64.70
81726;DHT22;71135;16.738;-14.648;2023-09-30T10:59:35;21.90;63.20
81726;DHT22;71135;16.738;-14.648;2023-09-30T11:02:18;22.60;62.10
81726;DHT22;71135;16.738;-14.648;2023-09-30T11:04:47;23.40;61.80
81726;DHT22;71135;16.738;-14.648;2023-09-30T11:07:23;24.00;60.60
81726;DHT22;71135;16.738;-14.648;2023-09-30T11:09:54;24.40;60.40
81726;DHT22;71135;16.738;-14.648;2023-09-30T11:12:23;24.30;60.40
81726;DHT22;71135;16.738;-14.648;2023-09-30T11:14:59;24.20;60.30
81726;DHT22;71135;16.738;-14.648;2023-09-30T11:17:28;23.90;59.90
81726;DHT22;71135;16.738;-14.648;2023-09-30T11:19:57;23.60;60.50
81726;DHT22;71135;16.738;-14.648;2023-09-30T11:22:29;23.50;60.70
81726;DHT22;71135;16.738;-14.648;2023-09-30T11:25:01;23.30;60.30
81726;DHT22;71135;16.738;-14.648;2023-09-30T11:27:30;22.90;60.60
81726;DHT22;71135;16.738;-14.648;2023-09-30T11:30:02;22.70;61.20
81726;DHT22;71135;16.738;-14.648;2023-09-30T11:32:34;22.30;61.20
81726;DHT22;71135;16.738;-14.648;2023-09-30T11:35:09;22.10;61.80
81726;DHT22;71135;16.738;-14.648;2023-09-30T11:37:41;21.80;62.10
81726;DHT22;71135;16.738;-14.648;2023-09-30T11:40:15;21.70;62.20
81726;DHT22;71135;16.738;-14.648;2023-09-30T11:43:08;21.60;62.10
81726;DHT22;71135;16.738;-14.648;2023-09-30T11:45:38;21.50;61.80
81726;DHT22;71135;16.738;-14.648;2023-09-30T11:48:19;21.50;61.80
81726;DHT22;71135;16.738;-14.648;2023-09-30T11:50:49;21.40;62.00
81726;DHT22;71135;16.738;-14.648;2023-09-30T11:53:21;21.40;62.20
81726;DHT22;71135;16.738;-14.648;2023-09-30T11:55:51;21.50;62.10
81726;DHT22;71135;16.738;-14.648;2023-09-30T11:58:22;21.60;61.90
81726;DHT22;71135;16.738;-14.648;2023-09-30T12:00:53;21.70;61.70
81726;DHT22;71135;16.738;-14.648;2023-09-30T12:03:23;21.80;61.20
81726;DHT22;71135;16.738;-14.648;2023-09-30T12:05:53;21.90;60.60
81726;DHT22;71135;16.738;-14.648;2023-09-30T12:08:26;21.90;59.90
81726;DHT22;71135;16.738;-14.648;2023-09-30T12:10:55;22.00;58.70
81726;DHT22;71135;16.738;-14.648;2023-09-30T12:13:25;22.00;57.70
81726;DHT22;71135;16.738;-14.648;2023-09-30T12:15:55;22.00;58.30
81726;DHT22;71135;16.738;-14.648;2023-09-30T12:18:24;22.00;58.30
81726;DHT22;71135;16.738;-14.648;2023-09-30T12:20:53;22.00;58.60
81726;DHT22;71135;16.738;-14.648;2023-09-30T12:23:25;22.10;58.30
81726;DHT22;71135;16.738;-14.648;2023-09-30T12:25:54;22.00;58.10
81726;DHT22;71135;16.738;-14.648;2023-09-30T12:28:23;22.00;57.70
81726;DHT22;71135;16.738;-14.648;2023-09-30T12:30:53;21.90;58.00
81726;DHT22;71135;16.738;-14.648;2023-09-30T12:33:22;21.90;57.10
81726;DHT22;71135;16.738;-14.648;2023-09-30T12:35:54;21.90;56.60
81726;DHT22;71135;16.738;-14.648;2023-09-30T12:38:26;21.90;57.00
81726;DHT22;71135;16.738;-14.648;2023-09-30T12:40:55;21.90;57.10
81726;DHT22;71135;16.738;-14.648;2023-09-30T12:43:24;21.90;57.40
81726;DHT22;71135;16.738;-14.648;2023-09-30T12:45:53;21.80;57.60
81726;DHT22;71135;16.738;-14.648;2023-09-30T12:48:23;21.70;57.60
81726;DHT22;71135;16.738;-14.648;2023-09-30T12:50:52;21.50;57.90
81726;DHT22;71135;16.738;-14.648;2023-09-30T12:53:21;21.50;58.00
81726;DHT22;71135;16.738;-14.648;2023-09-30T12:55:53;21.40;58.30
81726;DHT22;71135;16.738;-14.648;2023-09-30T12:58:22;21.30;58.50
81726;DHT22;71135;16.738;-14.648;2023-09-30T13:00:53;21.10;58.40
81726;DHT22;71135;16.738;-14.648;2023-09-30T13:03:23;21.10;58.50
81726;DHT22;71135;16.738;-14.648;2023-09-30T13:05:52;21.00;58.70
81726;DHT22;71135;16.738;-14.648;2023-09-30T13:08:21;21.00;58.60
81726;DHT22;71135;16.738;-14.648;2023-09-30T13:10:53;20.90;58.90
81726;DHT22;71135;16.738;-14.648;2023-09-30T13:13:22;20.80;59.00
81726;DHT22;71135;16.738;-14.648;2023-09-30T13:15:51;20.70;59.30
81726;DHT22;71135;16.738;-14.648;2023-09-30T13:18:20;20.60;59.50
81726;DHT22;71135;16.738;-14.648;2023-09-30T13:20:49;20.60;59.50
81726;DHT22;71135;16.738;-14.648;2023-09-30T13:23:19;20.50;59.40
81726;DHT22;71135;16.738;-14.648;2023-09-30T13:25:48;20.50;59.50
81726;DHT22;71135;16.738;-14.648;2023-09-30T13:28:19;20.40;59.60
81726;DHT22;71135;16.738;-14.648;2023-09-30T13:30:48;20.40;59.80
81726;DHT22;71135;16.738;-14.648;2023-09-30T13:33:18;20.30;59.80
81726;DHT22;71135;16.738;-14.648;2023-09-30T13:35:47;20.40;60.00
81726;DHT22;71135;16.738;-14.648;2023-09-30T13:38:17;20.30;59.70
81726;DHT22;71135;16.738;-14.648;2023-09-30T13:40:46;20.30;59.70
81726;DHT22;71135;16.738;-14.648;2023-09-30T13:43:15;20.30;59.90
81726;DHT22;71135;16.738;-14.648;2023-09-30T13:45:47;20.30;60.00
81726;DHT22;71135;16.738;-14.648;2023-09-30T13:48:16;20.20;60.10
81726;DHT22;71135;16.738;-14.648;2023-09-30T13:50:45;20.10;60.00
81726;DHT22;71135;16.738;-14.648;2023-09-30T13:53:14;20.00;59.70
81726;DHT22;71135;16.738;-14.648;2023-09-30T13:55:44;20.00;59.80
81726;DHT22;71135;16.738;-14.648;2023-09-30T13:58:13;20.00;59.90
81726;DHT22;71135;16.738;-14.648;2023-09-30T14:00:49;19.90;59.80
81726;DHT22;71135;16.738;-14.648;2023-09-30T14:03:18;19.90;59.80
81726;DHT22;71135;16.738;-14.648;2023-09-30T14:05:47;19.80;60.00
81726;DHT22;71135;16.738;-14.648;2023-09-30T14:08:16;19.80;60.10
81726;DHT22;71135;16.738;-14.648;2023-09-30T14:10:46;19.80;60.10
81726;DHT22;71135;16.738;-14.648;2023-09-30T14:13:15;19.70;60.20
81726;DHT22;71135;16.738;-14.648;2023-09-30T14:15:47;19.70;60.30
81726;DHT22;71135;16.738;-14.648;2023-09-30T14:18:18;19.70;60.30
81726;DHT22;71135;16.738;-14.648;2023-09-30T14:20:48;19.70;60.30
81726;DHT22;71135;16.738;-14.648;2023-09-30T14:23:17;19.70;60.40
81726;DHT22;71135;16.738;-14.648;2023-09-30T14:25:46;19.70;60.40
81726;DHT22;71135;16.738;-14.648;2023-09-30T14:28:15;19.70;60.40
81726;DHT22;71135;16.738;-14.648;2023-09-30T14:30:44;19.80;60.40
81726;DHT22;71135;16.738;-14.648;2023-09-30T14:33:16;19.80;60.50
81726;DHT22;71135;16.738;-14.648;2023-09-30T14:35:45;19.80;60.30
81726;DHT22;71135;16.738;-14.648;2023-09-30T14:38:15;19.80;60.20
81726;DHT22;71135;16.738;-14.648;2023-09-30T14:40:44;19.80;60.30
81726;DHT22;71135;16.738;-14.648;2023-09-30T14:43:13;19.80;60.40
81726;DHT22;71135;16.738;-14.648;2023-09-30T14:45:42;19.80;60.30
81726;DHT22;71135;16.738;-14.648;2023-09-30T14:48:11;19.80;60.40
81726;DHT22;71135;16.738;-14.648;2023-09-30T14:50:50;19.80;60.40
81726;DHT22;71135;16.738;-14.648;2023-09-30T14:53:20;19.90;60.50
81726;DHT22;71135;16.738;-14.648;2023-09-30T14:55:49;19.90;60.50
81726;DHT22;71135;16.738;-14.648;2023-09-30T14:58:18;20.00;60.40
81726;DHT22;71135;16.738;-14.648;2023-09-30T15:00:47;20.00;60.30
81726;DHT22;71135;16.738;-14.648;2023-09-30T15:03:16;20.10;60.40
81726;DHT22;71135;16.738;-14.648;2023-09-30T15:05:57;20.10;60.40
81726;DHT22;71135;16.738;-14.648;2023-09-30T15:08:27;20.10;60.40
81726;DHT22;71135;16.738;-14.648;2023-09-30T15:10:58;20.10;60.40
81726;DHT22;71135;16.738;-14.648;2023-09-30T15:13:28;20.10;60.50
81726;DHT22;71135;16.738;-14.648;2023-09-30T15:15:57;20.10;60.30
81726;DHT22;71135;16.738;-14.648;2023-09-30T15:18:27;20.10;60.30
81726;DHT22;71135;16.738;-14.648;2023-09-30T15:20:58;20.10;60.30
81726;DHT22;71135;16.738;-14.648;2023-09-30T15:23:29;20.00;60.40
81726;DHT22;71135;16.738;-14.648;2023-09-30T15:25:59;20.00;60.30